sensor_id;sensor_type;location;lat;lon;timestamp;P1;durP1;ratioP1;P2;durP2;ratioP2
52188;SDS011;38162;45.926;13.608;2023-05-17T00:00:36;2.38;;;0.57;;
52188;SDS011;38162;45.926;13.608;2023-05-17T00:03:02;2.53;;;0.80;;
52188;SDS011;38162;45.926;13.608;2023-05-17T00:05:28;2.00;;;0.65;;
52188;SDS011;38162;45.926;13.608;2023-05-17T00:07:54;3.08;;;0.52;;
52188;SDS011;38162;45.926;13.608;2023-05-17T00:10:23;1.00;;;0.60;;
52188;SDS011;38162;45.926;13.608;2023-05-17T00:23:06;2.97;;;0.70;;
52188;SDS011;38162;45.926;13.608;2023-05-17T00:32:28;0.77;;;0.50;;
52188;SDS011;38162;45.926;13.608;2023-05-17T00:38:16;4.38;;;0.55;;
52188;SDS011;38162;45.926;13.608;2023-05-17T00:40:42;3.80;;;0.63;;
52188;SDS011;38162;45.926;13.608;2023-05-17T00:43:08;1.98;;;0.80;;
52188;SDS011;38162;45.926;13.608;2023-05-17T00:45:34;3.13;;;1.23;;
52188;SDS011;38162;45.926;13.608;2023-05-17T00:48:00;2.83;;;0.50;;
52188;SDS011;38162;45.926;13.608;2023-05-17T00:50:26;2.30;;;0.57;;
52188;SDS011;38162;45.926;13.608;2023-05-17T00:52:51;3.25;;;0.60;;
52188;SDS011;38162;45.926;13.608;2023-05-17T00:55:18;3.95;;;0.52;;
52188;SDS011;38162;45.926;13.608;2023-05-17T00:57:44;5.13;;;0.60;;
52188;SDS011;38162;45.926;13.608;2023-05-17T01:00:10;2.65;;;0.50;;
52188;SDS011;38162;45.926;13.608;2023-05-17T01:02:37;0.65;;;0.30;;
52188;SDS011;38162;45.926;13.608;2023-05-17T01:05:03;2.65;;;0.50;;
52188;SDS011;38162;45.926;13.608;2023-05-17T01:07:30;2.75;;;0.82;;
52188;SDS011;38162;45.926;13.608;2023-05-17T01:09:55;3.28;;;0.98;;
52188;SDS011;38162;45.926;13.608;2023-05-17T01:17:53;1.20;;;0.30;;
52188;SDS011;38162;45.926;13.608;2023-05-17T01:20:27;2.05;;;0.35;;
52188;SDS011;38162;45.926;13.608;2023-05-17T01:23:09;1.80;;;0.30;;
52188;SDS011;38162;45.926;13.608;2023-05-17T01:28:44;2.80;;;0.30;;
52188;SDS011;38162;45.926;13.608;2023-05-17T01:31:13;1.17;;;0.30;;
52188;SDS011;38162;45.926;13.608;2023-05-17T01:33:39;1.88;;;0.30;;
52188;SDS011;38162;45.926;13.608;2023-05-17T01:36:05;1.23;;;0.38;;
52188;SDS011;38162;45.926;13.608;2023-05-17T01:38:32;2.35;;;0.30;;
52188;SDS011;38162;45.926;13.608;2023-05-17T01:41:00;1.40;;;0.20;;
52188;SDS011;38162;45.926;13.608;2023-05-17T01:48:53;2.20;;;0.20;;
52188;SDS011;38162;45.926;13.608;2023-05-17T01:51:43;1.85;;;0.20;;
52188;SDS011;38162;45.926;13.608;2023-05-17T01:54:50;1.85;;;0.25;;
52188;SDS011;38162;45.926;13.608;2023-05-17T02:04:12;0.90;;;0.20;;
52188;SDS011;38162;45.926;13.608;2023-05-17T02:24:10;2.55;;;0.13;;
52188;SDS011;38162;45.926;13.608;2023-05-17T02:26:45;0.85;;;0.20;;
52188;SDS011;38162;45.926;13.608;2023-05-17T02:29:19;0.00;;;0.00;;
52188;SDS011;38162;45.926;13.608;2023-05-17T02:31:45;0.47;;;0.20;;
52188;SDS011;38162;45.926;13.608;2023-05-17T02:34:11;0.00;;;0.00;;
52188;SDS011;38162;45.926;13.608;2023-05-17T02:36:37;0.10;;;0.00;;
52188;SDS011;38162;45.926;13.608;2023-05-17T02:39:05;0.00;;;0.00;;
52188;SDS011;38162;45.926;13.608;2023-05-17T02:41:30;0.00;;;0.00;;
52188;SDS011;38162;45.926;13.608;2023-05-17T02:43:56;0.52;;;0.10;;
52188;SDS011;38162;45.926;13.608;2023-05-17T02:46:22;0.20;;;0.00;;
52188;SDS011;38162;45.926;13.608;2023-05-17T02:48:48;0.47;;;0.10;;
52188;SDS011;38162;45.926;13.608;2023-05-17T02:51:13;1.63;;;0.08;;
52188;SDS011;38162;45.926;13.608;2023-05-17T02:53:39;0.00;;;0.00;;
52188;SDS011;38162;45.926;13.608;2023-05-17T02:56:05;1.27;;;0.00;;
52188;SDS011;38162;45.926;13.608;2023-05-17T02:58:31;0.70;;;0.08;;
52188;SDS011;38162;45.926;13.608;2023-05-17T03:00:57;1.45;;;0.10;;
52188;SDS011;38162;45.926;13.608;2023-05-17T03:03:22;0.13;;;0.10;;
52188;SDS011;38162;45.926;13.608;2023-05-17T03:05:48;0.10;;;0.00;;
52188;SDS011;38162;45.926;13.608;2023-05-17T03:08:14;0.25;;;0.10;;
52188;SDS011;38162;45.926;13.608;2023-05-17T03:10:40;0.52;;;0.10;;
52188;SDS011;38162;45.926;13.608;2023-05-17T03:13:06;0.00;;;0.00;;
52188;SDS011;38162;45.926;13.608;2023-05-17T03:15:31;0.10;;;0.00;;
52188;SDS011;38162;45.926;13.608;2023-05-17T03:17:57;0.20;;;0.10;;
52188;SDS011;38162;45.926;13.608;2023-05-17T03:20:23;0.88;;;0.10;;
52188;SDS011;38162;45.926;13.608;2023-05-17T03:22:50;0.50;;;0.00;;
52188;SDS011;38162;45.926;13.608;2023-05-17T03:25:15;1.23;;;0.20;;
52188;SDS011;38162;45.926;13.608;2023-05-17T03:27:41;0.30;;;0.00;;
52188;SDS011;38162;45.926;13.608;2023-05-17T03:30:07;2.35;;;0.00;;
52188;SDS011;38162;45.926;13.608;2023-05-17T03:32:44;2.22;;;0.10;;
52188;SDS011;38162;45.926;13.608;2023-05-17T03:35:10;0.68;;;0.10;;
52188;SDS011;38162;45.926;13.608;2023-05-17T03:37:36;0.00;;;0.00;;
52188;SDS011;38162;45.926;13.608;2023-05-17T03:40:05;0.63;;;0.00;;
52188;SDS011;38162;45.926;13.608;2023-05-17T04:00:28;0.10;;;0.10;;
52188;SDS011;38162;45.926;13.608;2023-05-17T04:02:59;0.00;;;0.00;;
52188;SDS011;38162;45.926;13.608;2023-05-17T04:09:25;2.42;;;0.75;;
52188;SDS011;38162;45.926;13.608;2023-05-17T04:11:51;0.50;;;0.50;;
52188;SDS011;38162;45.926;13.608;2023-05-17T04:14:17;0.82;;;0.13;;
52188;SDS011;38162;45.926;13.608;2023-05-17T04:16:43;0.10;;;0.10;;
52188;SDS011;38162;45.926;13.608;2023-05-17T04:19:09;0.10;;;0.05;;
52188;SDS011;38162;45.926;13.608;2023-05-17T04:21:35;0.30;;;0.10;;
52188;SDS011;38162;45.926;13.608;2023-05-17T04:24:01;1.20;;;0.10;;
52188;SDS011;38162;45.926;13.608;2023-05-17T04:26:27;0.30;;;0.00;;
52188;SDS011;38162;45.926;13.608;2023-05-17T04:28:53;0.57;;;0.15;;
52188;SDS011;38162;45.926;13.608;2023-05-17T04:31:18;0.65;;;0.10;;
52188;SDS011;38162;45.926;13.608;2023-05-17T04:33:44;1.85;;;0.13;;
52188;SDS011;38162;45.926;13.608;2023-05-17T04:36:10;0.85;;;0.03;;
52188;SDS011;38162;45.926;13.608;2023-05-17T04:38:36;0.38;;;0.30;;
52188;SDS011;38162;45.926;13.608;2023-05-17T04:41:04;1.10;;;0.80;;
52188;SDS011;38162;45.926;13.608;2023-05-17T04:43:31;0.20;;;0.10;;
52188;SDS011;38162;45.926;13.608;2023-05-17T04:45:57;0.17;;;0.10;;
52188;SDS011;38162;45.926;13.608;2023-05-17T04:48:24;1.88;;;0.10;;
52188;SDS011;38162;45.926;13.608;2023-05-17T04:50:51;0.20;;;0.20;;
52188;SDS011;38162;45.926;13.608;2023-05-17T04:53:18;2.88;;;0.15;;
52188;SDS011;38162;45.926;13.608;2023-05-17T04:55:44;0.10;;;0.10;;
52188;SDS011;38162;45.926;13.608;2023-05-17T04:58:12;0.10;;;0.10;;
52188;SDS011;38162;45.926;13.608;2023-05-17T05:00:38;0.10;;;0.10;;
52188;SDS011;38162;45.926;13.608;2023-05-17T05:03:03;0.40;;;0.20;;
52188;SDS011;38162;45.926;13.608;2023-05-17T05:05:30;0.45;;;0.10;;
52188;SDS011;38162;45.926;13.608;2023-05-17T05:07:56;0.70;;;0.20;;
52188;SDS011;38162;45.926;13.608;2023-05-17T05:10:22;0.77;;;0.20;;
52188;SDS011;38162;45.926;13.608;2023-05-17T05:12:48;0.30;;;0.10;;
52188;SDS011;38162;45.926;13.608;2023-05-17T05:15:14;0.50;;;0.30;;
52188;SDS011;38162;45.926;13.608;2023-05-17T05:17:40;3.08;;;0.32;;
52188;SDS011;38162;45.926;13.608;2023-05-17T05:20:06;1.55;;;0.40;;
52188;SDS011;38162;45.926;13.608;2023-05-17T05:22:33;0.30;;;0.20;;
52188;SDS011;38162;45.926;13.608;2023-05-17T05:35:42;0.10;;;0.10;;
52188;SDS011;38162;45.926;13.608;2023-05-17T05:38:37;0.28;;;0.10;;
52188;SDS011;38162;45.926;13.608;2023-05-17T05:41:32;0.10;;;0.10;;
52188;SDS011;38162;45.926;13.608;2023-05-17T05:48:05;1.00;;;0.28;;
52188;SDS011;38162;45.926;13.608;2023-05-17T05:51:01;0.52;;;0.20;;
52188;SDS011;38162;45.926;13.608;2023-05-17T05:53:50;0.45;;;0.30;;
52188;SDS011;38162;45.926;13.608;2023-05-17T05:56:16;0.25;;;0.20;;
52188;SDS011;38162;45.926;13.608;2023-05-17T05:58:42;1.90;;;0.10;;
52188;SDS011;38162;45.926;13.608;2023-05-17T06:01:09;0.90;;;0.52;;
52188;SDS011;38162;45.926;13.608;2023-05-17T06:03:35;1.75;;;0.30;;
52188;SDS011;38162;45.926;13.608;2023-05-17T06:06:01;0.68;;;0.30;;
52188;SDS011;38162;45.926;13.608;2023-05-17T06:08:27;1.83;;;0.40;;
52188;SDS011;38162;45.926;13.608;2023-05-17T06:10:53;7.32;;;0.50;;
52188;SDS011;38162;45.926;13.608;2023-05-17T06:13:19;1.65;;;0.30;;
52188;SDS011;38162;45.926;13.608;2023-05-17T06:15:44;2.30;;;0.30;;
52188;SDS011;38162;45.926;13.608;2023-05-17T06:18:10;1.50;;;0.25;;
52188;SDS011;38162;45.926;13.608;2023-05-17T06:20:36;0.60;;;0.20;;
52188;SDS011;38162;45.926;13.608;2023-05-17T06:23:02;0.82;;;0.20;;
52188;SDS011;38162;45.926;13.608;2023-05-17T06:25:29;0.95;;;0.20;;
52188;SDS011;38162;45.926;13.608;2023-05-17T06:27:54;0.65;;;0.10;;
52188;SDS011;38162;45.926;13.608;2023-05-17T06:30:20;0.30;;;0.20;;
52188;SDS011;38162;45.926;13.608;2023-05-17T06:32:46;1.02;;;0.10;;
52188;SDS011;38162;45.926;13.608;2023-05-17T06:35:12;0.20;;;0.10;;
52188;SDS011;38162;45.926;13.608;2023-05-17T06:37:38;0.22;;;0.10;;
52188;SDS011;38162;45.926;13.608;2023-05-17T06:40:04;0.60;;;0.10;;
52188;SDS011;38162;45.926;13.608;2023-05-17T06:42:34;0.50;;;0.20;;
52188;SDS011;38162;45.926;13.608;2023-05-17T06:45:00;0.45;;;0.10;;
52188;SDS011;38162;45.926;13.608;2023-05-17T06:47:26;0.85;;;0.20;;
52188;SDS011;38162;45.926;13.608;2023-05-17T06:49:52;0.30;;;0.10;;
52188;SDS011;38162;45.926;13.608;2023-05-17T06:52:17;2.58;;;0.17;;
52188;SDS011;38162;45.926;13.608;2023-05-17T06:54:43;0.80;;;0.20;;
52188;SDS011;38162;45.926;13.608;2023-05-17T06:57:09;0.95;;;0.20;;
52188;SDS011;38162;45.926;13.608;2023-05-17T06:59:35;0.45;;;0.15;;
52188;SDS011;38162;45.926;13.608;2023-05-17T07:02:01;0.70;;;0.20;;
52188;SDS011;38162;45.926;13.608;2023-05-17T07:04:27;1.30;;;0.22;;
52188;SDS011;38162;45.926;13.608;2023-05-17T07:06:53;1.67;;;0.30;;
52188;SDS011;38162;45.926;13.608;2023-05-17T07:09:22;0.60;;;0.20;;
52188;SDS011;38162;45.926;13.608;2023-05-17T07:18:46;1.25;;;0.47;;
52188;SDS011;38162;45.926;13.608;2023-05-17T07:21:32;2.33;;;0.50;;
52188;SDS011;38162;45.926;13.608;2023-05-17T07:41:23;1.23;;;0.52;;
52188;SDS011;38162;45.926;13.608;2023-05-17T07:51:20;2.78;;;0.85;;
52188;SDS011;38162;45.926;13.608;2023-05-17T07:53:48;1.65;;;0.57;;
52188;SDS011;38162;45.926;13.608;2023-05-17T07:56:14;2.20;;;0.52;;
52188;SDS011;38162;45.926;13.608;2023-05-17T07:58:40;1.25;;;0.60;;
52188;SDS011;38162;45.926;13.608;2023-05-17T08:01:06;1.45;;;0.80;;
52188;SDS011;38162;45.926;13.608;2023-05-17T08:03:33;3.75;;;0.60;;
52188;SDS011;38162;45.926;13.608;2023-05-17T08:06:00;3.70;;;0.70;;
52188;SDS011;38162;45.926;13.608;2023-05-17T08:08:26;2.28;;;0.70;;
52188;SDS011;38162;45.926;13.608;2023-05-17T08:10:51;2.45;;;0.90;;
52188;SDS011;38162;45.926;13.608;2023-05-17T08:13:17;6.65;;;0.95;;
52188;SDS011;38162;45.926;13.608;2023-05-17T08:15:43;3.28;;;0.88;;
52188;SDS011;38162;45.926;13.608;2023-05-17T08:18:09;5.80;;;1.10;;
52188;SDS011;38162;45.926;13.608;2023-05-17T08:20:35;3.90;;;1.33;;
52188;SDS011;38162;45.926;13.608;2023-05-17T08:23:01;3.47;;;1.10;;
52188;SDS011;38162;45.926;13.608;2023-05-17T08:25:27;2.53;;;1.10;;
52188;SDS011;38162;45.926;13.608;2023-05-17T08:27:53;2.38;;;1.02;;
52188;SDS011;38162;45.926;13.608;2023-05-17T08:30:19;8.38;;;1.40;;
52188;SDS011;38162;45.926;13.608;2023-05-17T08:32:44;2.30;;;1.10;;
52188;SDS011;38162;45.926;13.608;2023-05-17T08:35:10;2.47;;;1.15;;
52188;SDS011;38162;45.926;13.608;2023-05-17T08:37:36;2.70;;;1.17;;
52188;SDS011;38162;45.926;13.608;2023-05-17T08:40:02;8.52;;;1.40;;
52188;SDS011;38162;45.926;13.608;2023-05-17T08:42:29;4.57;;;1.00;;
52188;SDS011;38162;45.926;13.608;2023-05-17T08:44:55;3.50;;;1.05;;
52188;SDS011;38162;45.926;13.608;2023-05-17T08:47:20;4.45;;;1.40;;
52188;SDS011;38162;45.926;13.608;2023-05-17T08:49:56;4.75;;;1.00;;
52188;SDS011;38162;45.926;13.608;2023-05-17T08:52:29;4.40;;;0.60;;
52188;SDS011;38162;45.926;13.608;2023-05-17T08:54:56;3.25;;;0.80;;
52188;SDS011;38162;45.926;13.608;2023-05-17T08:57:23;3.47;;;0.55;;
52188;SDS011;38162;45.926;13.608;2023-05-17T08:59:52;2.60;;;0.88;;
52188;SDS011;38162;45.926;13.608;2023-05-17T09:02:19;3.95;;;0.88;;
52188;SDS011;38162;45.926;13.608;2023-05-17T09:04:48;3.13;;;1.00;;
52188;SDS011;38162;45.926;13.608;2023-05-17T09:13:47;3.15;;;0.70;;
52188;SDS011;38162;45.926;13.608;2023-05-17T09:16:22;4.18;;;0.70;;
52188;SDS011;38162;45.926;13.608;2023-05-17T09:19:21;2.75;;;0.75;;
52188;SDS011;38162;45.926;13.608;2023-05-17T09:24:48;2.25;;;0.60;;
52188;SDS011;38162;45.926;13.608;2023-05-17T09:34:24;1.20;;;0.30;;
52188;SDS011;38162;45.926;13.608;2023-05-17T09:36:51;1.25;;;0.40;;
52188;SDS011;38162;45.926;13.608;2023-05-17T09:39:18;2.33;;;0.30;;
52188;SDS011;38162;45.926;13.608;2023-05-17T09:41:45;6.63;;;0.90;;
52188;SDS011;38162;45.926;13.608;2023-05-17T09:44:12;1.95;;;0.60;;
52188;SDS011;38162;45.926;13.608;2023-05-17T09:46:43;2.33;;;1.40;;
52188;SDS011;38162;45.926;13.608;2023-05-17T09:49:11;3.08;;;1.38;;
52188;SDS011;38162;45.926;13.608;2023-05-17T09:51:41;3.70;;;1.00;;
52188;SDS011;38162;45.926;13.608;2023-05-17T09:54:09;2.25;;;1.13;;
52188;SDS011;38162;45.926;13.608;2023-05-17T09:56:35;1.35;;;0.80;;
52188;SDS011;38162;45.926;13.608;2023-05-17T09:59:01;5.03;;;0.63;;
52188;SDS011;38162;45.926;13.608;2023-05-17T10:01:29;2.05;;;0.75;;
52188;SDS011;38162;45.926;13.608;2023-05-17T10:03:59;1.42;;;0.55;;
52188;SDS011;38162;45.926;13.608;2023-05-17T10:06:27;2.85;;;1.02;;
52188;SDS011;38162;45.926;13.608;2023-05-17T10:08:55;2.83;;;0.88;;
52188;SDS011;38162;45.926;13.608;2023-05-17T10:11:26;2.35;;;0.80;;
52188;SDS011;38162;45.926;13.608;2023-05-17T10:14:02;1.40;;;0.60;;
52188;SDS011;38162;45.926;13.608;2023-05-17T10:16:33;7.80;;;1.25;;
52188;SDS011;38162;45.926;13.608;2023-05-17T10:18:59;1.95;;;0.90;;
52188;SDS011;38162;45.926;13.608;2023-05-17T10:21:27;3.03;;;0.90;;
52188;SDS011;38162;45.926;13.608;2023-05-17T10:23:55;2.42;;;1.02;;
52188;SDS011;38162;45.926;13.608;2023-05-17T10:26:26;2.97;;;0.57;;
52188;SDS011;38162;45.926;13.608;2023-05-17T10:29:01;1.40;;;0.50;;
52188;SDS011;38162;45.926;13.608;2023-05-17T10:31:28;1.38;;;0.20;;
52188;SDS011;38162;45.926;13.608;2023-05-17T10:33:55;5.70;;;0.20;;
52188;SDS011;38162;45.926;13.608;2023-05-17T10:36:22;0.00;;;0.00;;
52188;SDS011;38162;45.926;13.608;2023-05-17T10:38:49;2.45;;;0.10;;
52188;SDS011;38162;45.926;13.608;2023-05-17T10:41:16;0.90;;;0.10;;
52188;SDS011;38162;45.926;13.608;2023-05-17T10:43:45;0.15;;;0.10;;
52188;SDS011;38162;45.926;13.608;2023-05-17T10:53:06;0.10;;;0.00;;
52188;SDS011;38162;45.926;13.608;2023-05-17T10:59:55;1.77;;;0.20;;
52188;SDS011;38162;45.926;13.608;2023-05-17T11:09:44;0.47;;;0.13;;
52188;SDS011;38162;45.926;13.608;2023-05-17T11:12:52;0.20;;;0.13;;
52188;SDS011;38162;45.926;13.608;2023-05-17T11:16:07;1.17;;;0.17;;
52188;SDS011;38162;45.926;13.608;2023-05-17T11:18:46;0.15;;;0.10;;
52188;SDS011;38162;45.926;13.608;2023-05-17T11:21:16;0.93;;;0.30;;
52188;SDS011;38162;45.926;13.608;2023-05-17T11:23:43;1.70;;;0.20;;
52188;SDS011;38162;45.926;13.608;2023-05-17T11:28:46;0.20;;;0.10;;
52188;SDS011;38162;45.926;13.608;2023-05-17T11:31:13;1.02;;;0.10;;
52188;SDS011;38162;45.926;13.608;2023-05-17T11:33:43;0.32;;;0.13;;
52188;SDS011;38162;45.926;13.608;2023-05-17T11:36:13;0.20;;;0.17;;
52188;SDS011;38162;45.926;13.608;2023-05-17T11:38:43;0.13;;;0.10;;
52188;SDS011;38162;45.926;13.608;2023-05-17T11:41:16;1.70;;;0.17;;
52188;SDS011;38162;45.926;13.608;2023-05-17T11:43:46;3.75;;;0.15;;
52188;SDS011;38162;45.926;13.608;2023-05-17T11:46:22;0.22;;;0.08;;
52188;SDS011;38162;45.926;13.608;2023-05-17T11:48:49;0.80;;;0.20;;
52188;SDS011;38162;45.926;13.608;2023-05-17T11:51:16;1.65;;;0.13;;
52188;SDS011;38162;45.926;13.608;2023-05-17T11:53:44;0.65;;;0.10;;
52188;SDS011;38162;45.926;13.608;2023-05-17T11:56:11;2.10;;;0.20;;
52188;SDS011;38162;45.926;13.608;2023-05-17T11:58:37;0.43;;;0.10;;
52188;SDS011;38162;45.926;13.608;2023-05-17T12:01:04;0.40;;;0.20;;
52188;SDS011;38162;45.926;13.608;2023-05-17T12:03:30;2.25;;;0.10;;
52188;SDS011;38162;45.926;13.608;2023-05-17T12:08:29;1.45;;;0.20;;
52188;SDS011;38162;45.926;13.608;2023-05-17T12:10:57;0.43;;;0.20;;
52188;SDS011;38162;45.926;13.608;2023-05-17T12:13:30;0.40;;;0.20;;
52188;SDS011;38162;45.926;13.608;2023-05-17T12:18:35;0.75;;;0.28;;
52188;SDS011;38162;45.926;13.608;2023-05-17T12:21:03;0.25;;;0.10;;
52188;SDS011;38162;45.926;13.608;2023-05-17T12:26:14;0.57;;;0.20;;
52188;SDS011;38162;45.926;13.608;2023-05-17T12:28:53;0.05;;;0.00;;
52188;SDS011;38162;45.926;13.608;2023-05-17T12:31:25;0.10;;;0.00;;
52188;SDS011;38162;45.926;13.608;2023-05-17T12:41:38;0.15;;;0.10;;
52188;SDS011;38162;45.926;13.608;2023-05-17T12:44:16;1.00;;;0.10;;
52188;SDS011;38162;45.926;13.608;2023-05-17T12:46:52;0.10;;;0.00;;
52188;SDS011;38162;45.926;13.608;2023-05-17T12:52:33;0.35;;;0.00;;
52188;SDS011;38162;45.926;13.608;2023-05-17T12:55:03;0.90;;;0.00;;
52188;SDS011;38162;45.926;13.608;2023-05-17T12:57:39;2.38;;;0.15;;
52188;SDS011;38162;45.926;13.608;2023-05-17T13:00:17;0.15;;;0.10;;
52188;SDS011;38162;45.926;13.608;2023-05-17T13:02:44;0.52;;;0.20;;
52188;SDS011;38162;45.926;13.608;2023-05-17T13:05:16;0.20;;;0.05;;
52188;SDS011;38162;45.926;13.608;2023-05-17T13:07:44;0.30;;;0.10;;
52188;SDS011;38162;45.926;13.608;2023-05-17T13:10:20;0.43;;;0.03;;
52188;SDS011;38162;45.926;13.608;2023-05-17T13:12:54;0.20;;;0.10;;
52188;SDS011;38162;45.926;13.608;2023-05-17T13:15:27;0.00;;;0.00;;
52188;SDS011;38162;45.926;13.608;2023-05-17T13:17:54;1.48;;;0.20;;
52188;SDS011;38162;45.926;13.608;2023-05-17T13:20:20;0.52;;;0.10;;
52188;SDS011;38162;45.926;13.608;2023-05-17T13:22:46;0.10;;;0.10;;
52188;SDS011;38162;45.926;13.608;2023-05-17T13:25:12;0.50;;;0.05;;
52188;SDS011;38162;45.926;13.608;2023-05-17T13:27:38;0.20;;;0.10;;
52188;SDS011;38162;45.926;13.608;2023-05-17T13:30:11;0.10;;;0.00;;
52188;SDS011;38162;45.926;13.608;2023-05-17T13:32:37;0.10;;;0.08;;
52188;SDS011;38162;45.926;13.608;2023-05-17T13:35:03;0.75;;;0.10;;
52188;SDS011;38162;45.926;13.608;2023-05-17T13:37:29;1.77;;;0.03;;
52188;SDS011;38162;45.926;13.608;2023-05-17T13:39:54;0.30;;;0.00;;
52188;SDS011;38162;45.926;13.608;2023-05-17T13:42:20;2.50;;;0.00;;
52188;SDS011;38162;45.926;13.608;2023-05-17T13:44:47;0.35;;;0.00;;
52188;SDS011;38162;45.926;13.608;2023-05-17T13:47:13;0.10;;;0.10;;
52188;SDS011;38162;45.926;13.608;2023-05-17T13:49:39;0.20;;;0.10;;
52188;SDS011;38162;45.926;13.608;2023-05-17T13:52:06;0.00;;;0.00;;
52188;SDS011;38162;45.926;13.608;2023-05-17T13:54:37;0.03;;;0.00;;
52188;SDS011;38162;45.926;13.608;2023-05-17T13:57:03;0.10;;;0.10;;
52188;SDS011;38162;45.926;13.608;2023-05-17T13:59:31;0.15;;;0.10;;
52188;SDS011;38162;45.926;13.608;2023-05-17T14:01:57;0.20;;;0.00;;
52188;SDS011;38162;45.926;13.608;2023-05-17T14:04:22;2.17;;;0.10;;
52188;SDS011;38162;45.926;13.608;2023-05-17T14:06:49;0.28;;;0.05;;
52188;SDS011;38162;45.926;13.608;2023-05-17T14:09:15;0.10;;;0.00;;
52188;SDS011;38162;45.926;13.608;2023-05-17T14:11:41;0.10;;;0.00;;
52188;SDS011;38162;45.926;13.608;2023-05-17T14:33:45;0.20;;;0.10;;
52188;SDS011;38162;45.926;13.608;2023-05-17T14:39:18;0.32;;;0.20;;
52188;SDS011;38162;45.926;13.608;2023-05-17T14:42:15;0.63;;;0.17;;
52188;SDS011;38162;45.926;13.608;2023-05-17T14:45:05;0.47;;;0.20;;
52188;SDS011;38162;45.926;13.608;2023-05-17T14:47:33;0.85;;;0.20;;
52188;SDS011;38162;45.926;13.608;2023-05-17T14:49:59;0.30;;;0.10;;
52188;SDS011;38162;45.926;13.608;2023-05-17T14:52:25;1.85;;;0.22;;
52188;SDS011;38162;45.926;13.608;2023-05-17T14:54:51;0.08;;;0.08;;
52188;SDS011;38162;45.926;13.608;2023-05-17T14:57:16;2.05;;;0.45;;
52188;SDS011;38162;45.926;13.608;2023-05-17T14:59:42;0.95;;;0.17;;
52188;SDS011;38162;45.926;13.608;2023-05-17T15:02:08;3.10;;;0.10;;
52188;SDS011;38162;45.926;13.608;2023-05-17T15:04:34;1.55;;;0.10;;
52188;SDS011;38162;45.926;13.608;2023-05-17T15:07:01;0.80;;;0.17;;
52188;SDS011;38162;45.926;13.608;2023-05-17T15:09:27;0.10;;;0.00;;
52188;SDS011;38162;45.926;13.608;2023-05-17T15:11:54;0.05;;;0.05;;
52188;SDS011;38162;45.926;13.608;2023-05-17T15:14:21;0.45;;;0.22;;
52188;SDS011;38162;45.926;13.608;2023-05-17T15:16:48;0.55;;;0.15;;
52188;SDS011;38162;45.926;13.608;2023-05-17T15:19:15;0.30;;;0.10;;
52188;SDS011;38162;45.926;13.608;2023-05-17T15:21:41;0.10;;;0.10;;
52188;SDS011;38162;45.926;13.608;2023-05-17T15:24:07;0.10;;;0.10;;
52188;SDS011;38162;45.926;13.608;2023-05-17T15:26:33;0.90;;;0.10;;
52188;SDS011;38162;45.926;13.608;2023-05-17T15:28:59;0.15;;;0.00;;
52188;SDS011;38162;45.926;13.608;2023-05-17T15:31:26;0.10;;;0.10;;
52188;SDS011;38162;45.926;13.608;2023-05-17T15:33:53;0.10;;;0.10;;
52188;SDS011;38162;45.926;13.608;2023-05-17T15:36:19;2.05;;;0.10;;
52188;SDS011;38162;45.926;13.608;2023-05-17T15:38:45;0.32;;;0.10;;
52188;SDS011;38162;45.926;13.608;2023-05-17T15:41:12;0.00;;;0.00;;
52188;SDS011;38162;45.926;13.608;2023-05-17T15:43:40;0.00;;;0.00;;
52188;SDS011;38162;45.926;13.608;2023-05-17T15:46:06;1.48;;;0.20;;
52188;SDS011;38162;45.926;13.608;2023-05-17T15:48:32;2.67;;;0.00;;
52188;SDS011;38162;45.926;13.608;2023-05-17T15:50:58;0.20;;;0.10;;
52188;SDS011;38162;45.926;13.608;2023-05-17T15:53:25;1.75;;;0.10;;
52188;SDS011;38162;45.926;13.608;2023-05-17T15:55:53;0.70;;;0.10;;
52188;SDS011;38162;45.926;13.608;2023-05-17T15:58:20;0.65;;;0.00;;
52188;SDS011;38162;45.926;13.608;2023-05-17T16:01:05;0.52;;;0.10;;
52188;SDS011;38162;45.926;13.608;2023-05-17T16:07:01;1.60;;;0.10;;
52188;SDS011;38162;45.926;13.608;2023-05-17T16:09:45;0.00;;;0.00;;
52188;SDS011;38162;45.926;13.608;2023-05-17T16:15:42;1.08;;;0.08;;
52188;SDS011;38162;45.926;13.608;2023-05-17T16:24:53;0.15;;;0.10;;
52188;SDS011;38162;45.926;13.608;2023-05-17T16:27:22;4.75;;;0.32;;
52188;SDS011;38162;45.926;13.608;2023-05-17T16:29:48;0.40;;;0.30;;
52188;SDS011;38162;45.926;13.608;2023-05-17T16:32:14;0.57;;;0.10;;
52188;SDS011;38162;45.926;13.608;2023-05-17T16:34:40;0.10;;;0.10;;
52188;SDS011;38162;45.926;13.608;2023-05-17T16:37:06;0.28;;;0.20;;
52188;SDS011;38162;45.926;13.608;2023-05-17T16:39:31;1.08;;;0.20;;
52188;SDS011;38162;45.926;13.608;2023-05-17T16:41:57;0.63;;;0.10;;
52188;SDS011;38162;45.926;13.608;2023-05-17T16:44:23;0.95;;;0.10;;
52188;SDS011;38162;45.926;13.608;2023-05-17T16:46:49;0.28;;;0.10;;
52188;SDS011;38162;45.926;13.608;2023-05-17T16:49:15;8.02;;;0.20;;
52188;SDS011;38162;45.926;13.608;2023-05-17T16:51:41;2.83;;;0.20;;
52188;SDS011;38162;45.926;13.608;2023-05-17T16:54:07;0.10;;;0.10;;
52188;SDS011;38162;45.926;13.608;2023-05-17T16:56:32;0.65;;;0.10;;
52188;SDS011;38162;45.926;13.608;2023-05-17T16:58:58;2.05;;;0.10;;
52188;SDS011;38162;45.926;13.608;2023-05-17T17:01:24;3.72;;;0.15;;
52188;SDS011;38162;45.926;13.608;2023-05-17T17:03:49;0.28;;;0.00;;
52188;SDS011;38162;45.926;13.608;2023-05-17T17:06:15;0.93;;;0.20;;
52188;SDS011;38162;45.926;13.608;2023-05-17T17:08:41;0.10;;;0.10;;
52188;SDS011;38162;45.926;13.608;2023-05-17T17:11:07;0.10;;;0.10;;
52188;SDS011;38162;45.926;13.608;2023-05-17T17:13:32;0.20;;;0.20;;
52188;SDS011;38162;45.926;13.608;2023-05-17T17:15:58;3.17;;;0.30;;
52188;SDS011;38162;45.926;13.608;2023-05-17T17:18:25;6.13;;;0.20;;
52188;SDS011;38162;45.926;13.608;2023-05-17T17:20:50;0.10;;;0.10;;
52188;SDS011;38162;45.926;13.608;2023-05-17T17:23:16;2.03;;;0.10;;
52188;SDS011;38162;45.926;13.608;2023-05-17T17:25:42;1.40;;;0.20;;
52188;SDS011;38162;45.926;13.608;2023-05-17T17:28:08;0.10;;;0.10;;
52188;SDS011;38162;45.926;13.608;2023-05-17T17:30:34;2.08;;;0.17;;
52188;SDS011;38162;45.926;13.608;2023-05-17T17:32:59;1.73;;;0.20;;
52188;SDS011;38162;45.926;13.608;2023-05-17T17:35:25;0.45;;;0.30;;
52188;SDS011;38162;45.926;13.608;2023-05-17T17:37:51;1.98;;;0.28;;
52188;SDS011;38162;45.926;13.608;2023-05-17T17:40:17;2.25;;;0.22;;
52188;SDS011;38162;45.926;13.608;2023-05-17T17:43:04;0.60;;;0.20;;
52188;SDS011;38162;45.926;13.608;2023-05-17T17:49:17;0.75;;;0.38;;
52188;SDS011;38162;45.926;13.608;2023-05-17T17:51:48;0.30;;;0.20;;
52188;SDS011;38162;45.926;13.608;2023-05-17T17:54:29;0.32;;;0.20;;
52188;SDS011;38162;45.926;13.608;2023-05-17T17:57:04;0.88;;;0.30;;
52188;SDS011;38162;45.926;13.608;2023-05-17T17:59:48;0.30;;;0.20;;
52188;SDS011;38162;45.926;13.608;2023-05-17T18:03:03;1.20;;;0.20;;
52188;SDS011;38162;45.926;13.608;2023-05-17T18:05:41;0.25;;;0.20;;
52188;SDS011;38162;45.926;13.608;2023-05-17T18:08:13;1.83;;;0.30;;
52188;SDS011;38162;45.926;13.608;2023-05-17T18:10:42;0.40;;;0.20;;
52188;SDS011;38162;45.926;13.608;2023-05-17T18:13:08;1.33;;;0.43;;
52188;SDS011;38162;45.926;13.608;2023-05-17T18:15:33;2.22;;;0.30;;
52188;SDS011;38162;45.926;13.608;2023-05-17T18:17:59;0.50;;;0.30;;
52188;SDS011;38162;45.926;13.608;2023-05-17T18:20:25;0.90;;;0.40;;
52188;SDS011;38162;45.926;13.608;2023-05-17T18:22:51;2.20;;;0.30;;
52188;SDS011;38162;45.926;13.608;2023-05-17T18:25:17;0.85;;;0.40;;